sensor_id;sensor_type;location;lat;lon;timestamp;pressure;altitude;pressure_sealevel;temperature;humidity
7660;BME280;3872;47.902;8.162;2023-03-26T00:01:58;91435.38;;;8.21;100.00
7660;BME280;3872;47.902;8.162;2023-03-26T00:04:24;91434.19;;;8.59;100.00
7660;BME280;3872;47.902;8.162;2023-03-26T00:06:52;91441.75;;;8.01;100.00
7660;BME280;3872;47.902;8.162;2023-03-26T00:09:18;91423.47;;;8.83;100.00
7660;BME280;3872;47.902;8.162;2023-03-26T00:11:45;91420.69;;;9.16;100.00
7660;BME280;3872;47.902;8.162;2023-03-26T00:14:13;91411.28;;;9.15;91.00
7660;BME280;3872;47.902;8.162;2023-03-26T00:16:42;91407.75;;;8.42;93.36
7660;BME280;3872;47.902;8.162;2023-03-26T00:19:09;91404.22;;;9.01;87.48
7660;BME280;3872;47.902;8.162;2023-03-26T00:21:37;91407.47;;;8.44;93.45
7660;BME280;3872;47.902;8.162;2023-03-26T00:24:06;91405.63;;;8.31;93.37
7660;BME280;3872;47.902;8.162;2023-03-26T00:26:33;91414.53;;;8.71;89.59
7660;BME280;3872;47.902;8.162;2023-03-26T00:29:02;91412.72;;;8.44;95.64
7660;BME280;3872;47.902;8.162;2023-03-26T00:31:30;91412.84;;;8.06;100.00
7660;BME280;3872;47.902;8.162;2023-03-26T00:33:56;91408.56;;;9.06;96.87
7660;BME280;3872;47.902;8.162;2023-03-26T00:36:25;91401.13;;;9.58;90.36
7660;BME280;3872;47.902;8.162;2023-03-26T00:38:51;91412.97;;;8.83;100.00
7660;BME280;3872;47.902;8.162;2023-03-26T00:41:19;91410.34;;;8.83;100.00
7660;BME280;3872;47.902;8.162;2023-03-26T00:43:53;91416.78;;;8.50;100.00
7660;BME280;3872;47.902;8.162;2023-03-26T00:46:21;91408.63;;;8.79;100.00
7660;BME280;3872;47.902;8.162;2023-03-26T00:48:49;91396.63;;;8.18;100.00
7660;BME280;3872;47.902;8.162;2023-03-26T00:51:17;91401.94;;;8.45;100.00
7660;BME280;3872;47.902;8.162;2023-03-26T00:53:46;91396.84;;;8.76;100.00
7660;BME280;3872;47.902;8.162;2023-03-26T00:56:13;91397.06;;;8.66;100.00
7660;BME280;3872;47.902;8.162;2023-03-26T00:58:40;91393.75;;;8.88;100.00
7660;BME280;3872;47.902;8.162;2023-03-26T01:01:09;91407.19;;;8.59;100.00
7660;BME280;3872;47.902;8.162;2023-03-26T01:03:37;91395.97;;;8.94;100.00
7660;BME280;3872;47.902;8.162;2023-03-26T01:06:07;91379.63;;;8.84;100.00
7660;BME280;3872;47.902;8.162;2023-03-26T01:08:38;91379.00;;;9.14;100.00
7660;BME280;3872;47.902;8.162;2023-03-26T01:11:08;91378.53;;;8.98;100.00
7660;BME280;3872;47.902;8.162;2023-03-26T01:13:40;91379.88;;;8.74;100.00
7660;BME280;3872;47.902;8.162;2023-03-26T01:16:14;91376.31;;;8.92;100.00
7660;BME280;3872;47.902;8.162;2023-03-26T01:18:45;91365.56;;;9.16;100.00
7660;BME280;3872;47.902;8.162;2023-03-26T01:21:16;91359.91;;;9.22;100.00
7660;BME280;3872;47.902;8.162;2023-03-26T01:23:55;91357.34;;;9.09;100.00
7660;BME280;3872;47.902;8.162;2023-03-26T01:26:37;91355.91;;;8.89;100.00
7660;BME280;3872;47.902;8.162;2023-03-26T01:29:14;91355.50;;;9.09;100.00
7660;BME280;3872;47.902;8.162;2023-03-26T01:31:51;91347.03;;;9.34;100.00
7660;BME280;3872;47.902;8.162;2023-03-26T01:34:25;91339.84;;;9.04;100.00
7660;BME280;3872;47.902;8.162;2023-03-26T01:37:05;91336.69;;;9.16;100.00
7660;BME280;3872;47.902;8.162;2023-03-26T01:39:41;91332.28;;;8.67;100.00
7660;BME280;3872;47.902;8.162;2023-03-26T01:42:17;91327.88;;;8.76;100.00
7660;BME280;3872;47.902;8.162;2023-03-26T01:44:50;91316.13;;;8.95;100.00
7660;BME280;3872;47.902;8.162;2023-03-26T01:47:20;91309.94;;;8.91;100.00
7660;BME280;3872;47.902;8.162;2023-03-26T01:49:47;91306.16;;;9.42;100.00
7660;BME280;3872;47.902;8.162;2023-03-26T01:52:16;91306.63;;;8.63;100.00
7660;BME280;3872;47.902;8.162;2023-03-26T01:54:45;91295.78;;;8.29;100.00
7660;BME280;3872;47.902;8.162;2023-03-26T01:57:17;91284.06;;;9.21;100.00
7660;BME280;3872;47.902;8.162;2023-03-26T02:00:05;91270.59;;;9.14;100.00
7660;BME280;3872;47.902;8.162;2023-03-26T02:02:55;91270.53;;;9.27;100.00
7660;BME280;3872;47.902;8.162;2023-03-26T02:05:28;91271.06;;;8.93;100.00
7660;BME280;3872;47.902;8.162;2023-03-26T02:08:02;91262.47;;;9.24;100.00
7660;BME280;3872;47.902;8.162;2023-03-26T02:10:38;91265.06;;;8.57;100.00
7660;BME280;3872;47.902;8.162;2023-03-26T02:13:05;91264.06;;;8.89;100.00
7660;BME280;3872;47.902;8.162;2023-03-26T02:15:32;91253.81;;;8.56;100.00
7660;BME280;3872;47.902;8.162;2023-03-26T02:17:59;91255.81;;;8.73;100.00
7660;BME280;3872;47.902;8.162;2023-03-26T02:20:26;91252.63;;;8.62;100.00
7660;BME280;3872;47.902;8.162;2023-03-26T02:22:54;91251.38;;;9.04;100.00
7660;BME280;3872;47.902;8.162;2023-03-26T02:25:21;91242.50;;;9.14;100.00
7660;BME280;3872;47.902;8.162;2023-03-26T02:27:51;91237.13;;;8.39;100.00
7660;BME280;3872;47.902;8.162;2023-03-26T02:30:21;91230.69;;;9.03;100.00
7660;BME280;3872;47.902;8.162;2023-03-26T02:32:51;91223.94;;;9.11;100.00
7660;BME280;3872;47.902;8.162;2023-03-26T02:35:21;91221.06;;;8.54;100.00
7660;BME280;3872;47.902;8.162;2023-03-26T02:37:52;91210.59;;;8.76;100.00
7660;BME280;3872;47.902;8.162;2023-03-26T02:40:20;91208.88;;;8.72;100.00
7660;BME280;3872;47.902;8.162;2023-03-26T02:42:48;91194.13;;;9.07;100.00
7660;BME280;3872;47.902;8.162;2023-03-26T02:45:16;91196.63;;;9.12;100.00
7660;BME280;3872;47.902;8.162;2023-03-26T02:48:18;91191.75;;;8.96;100.00
7660;BME280;3872;47.902;8.162;2023-03-26T02:50:51;91189.50;;;8.37;100.00
7660;BME280;3872;47.902;8.162;2023-03-26T02:53:24;91187.69;;;8.46;100.00
7660;BME280;3872;47.902;8.162;2023-03-26T02:56:01;91186.63;;;8.47;100.00
7660;BME280;3872;47.902;8.162;2023-03-26T02:58:35;91176.19;;;9.00;100.00
7660;BME280;3872;47.902;8.162;2023-03-26T03:01:03;91171.53;;;8.97;100.00
7660;BME280;3872;47.902;8.162;2023-03-26T03:03:40;91165.84;;;8.14;100.00
7660;BME280;3872;47.902;8.162;2023-03-26T03:06:24;91169.59;;;8.58;100.00
7660;BME280;3872;47.902;8.162;2023-03-26T03:08:56;91153.88;;;8.58;100.00
7660;BME280;3872;47.902;8.162;2023-03-26T03:11:43;91138.75;;;9.17;100.00
7660;BME280;3872;47.902;8.162;2023-03-26T03:14:10;91130.53;;;9.10;100.00
7660;BME280;3872;47.902;8.162;2023-03-26T03:16:38;91132.75;;;9.16;100.00
7660;BME280;3872;47.902;8.162;2023-03-26T03:19:07;91141.53;;;8.36;100.00
7660;BME280;3872;47.902;8.162;2023-03-26T03:21:38;91146.50;;;8.10;100.00
7660;BME280;3872;47.902;8.162;2023-03-26T03:24:07;91141.84;;;7.85;100.00
7660;BME280;3872;47.902;8.162;2023-03-26T03:26:40;91145.88;;;8.63;100.00
7660;BME280;3872;47.902;8.162;2023-03-26T03:29:30;91151.50;;;7.98;100.00
7660;BME280;3872;47.902;8.162;2023-03-26T03:32:07;91151.94;;;7.78;100.00
7660;BME280;3872;47.902;8.162;2023-03-26T03:34:42;91149.31;;;8.50;100.00
7660;BME280;3872;47.902;8.162;2023-03-26T03:37:08;91147.03;;;7.49;100.00
7660;BME280;3872;47.902;8.162;2023-03-26T03:39:44;91118.22;;;9.19;100.00
7660;BME280;3872;47.902;8.162;2023-03-26T03:42:15;91120.53;;;8.81;100.00
7660;BME280;3872;47.902;8.162;2023-03-26T03:44:42;91114.06;;;8.87;100.00
7660;BME280;3872;47.902;8.162;2023-03-26T03:47:24;91114.44;;;9.02;100.00
7660;BME280;3872;47.902;8.162;2023-03-26T03:49:51;91113.25;;;9.09;100.00
7660;BME280;3872;47.902;8.162;2023-03-26T03:52:18;91110.69;;;9.26;100.00
7660;BME280;3872;47.902;8.162;2023-03-26T03:54:44;91110.41;;;9.36;100.00
7660;BME280;3872;47.902;8.162;2023-03-26T03:57:33;91108.72;;;9.40;100.00
7660;BME280;3872;47.902;8.162;2023-03-26T04:00:03;91104.28;;;9.49;100.00
7660;BME280;3872;47.902;8.162;2023-03-26T04:02:42;91087.97;;;9.21;100.00
7660;BME280;3872;47.902;8.162;2023-03-26T04:05:11;91098.28;;;8.78;100.00
7660;BME280;3872;47.902;8.162;2023-03-26T04:07:43;91106.78;;;8.84;100.00
7660;BME280;3872;47.902;8.162;2023-03-26T04:10:25;91098.97;;;8.92;100.00
7660;BME280;3872;47.902;8.162;2023-03-26T04:13:00;91095.56;;;8.61;100.00
7660;BME280;3872;47.902;8.162;2023-03-26T04:15:48;91088.41;;;8.08;100.00
7660;BME280;3872;47.902;8.162;2023-03-26T04:18:16;91083.31;;;8.79;100.00
7660;BME280;3872;47.902;8.162;2023-03-26T04:20:45;91066.16;;;9.12;100.00
7660;BME280;3872;47.902;8.162;2023-03-26T04:23:17;91069.13;;;8.80;100.00
7660;BME280;3872;47.902;8.162;2023-03-26T04:25:49;91060.00;;;9.17;100.00
7660;BME280;3872;47.902;8.162;2023-03-26T04:28:25;91055.09;;;9.32;100.00
7660;BME280;3872;47.902;8.162;2023-03-26T04:31:09;91053.16;;;8.98;100.00
7660;BME280;3872;47.902;8.162;2023-03-26T04:33:42;91040.47;;;9.49;100.00
7660;BME280;3872;47.902;8.162;2023-03-26T04:36:13;91040.91;;;9.42;100.00
7660;BME280;3872;47.902;8.162;2023-03-26T04:38:43;91027.84;;;9.02;100.00
7660;BME280;3872;47.902;8.162;2023-03-26T04:41:13;91033.84;;;8.94;100.00
7660;BME280;3872;47.902;8.162;2023-03-26T04:44:08;91027.34;;;9.57;100.00
7660;BME280;3872;47.902;8.162;2023-03-26T04:46:50;91021.31;;;9.57;100.00
7660;BME280;3872;47.902;8.162;2023-03-26T04:49:35;91022.47;;;8.15;100.00
7660;BME280;3872;47.902;8.162;2023-03-26T04:52:01;91022.25;;;8.87;100.00
7660;BME280;3872;47.902;8.162;2023-03-26T04:54:51;91010.31;;;8.41;100.00
7660;BME280;3872;47.902;8.162;2023-03-26T04:57:23;91001.47;;;8.68;100.00
7660;BME280;3872;47.902;8.162;2023-03-26T04:59:58;90995.72;;;8.97;100.00
7660;BME280;3872;47.902;8.162;2023-03-26T05:02:25;90991.91;;;9.20;100.00
7660;BME280;3872;47.902;8.162;2023-03-26T05:04:54;90990.22;;;9.24;100.00
7660;BME280;3872;47.902;8.162;2023-03-26T05:07:24;90984.09;;;8.72;100.00
7660;BME280;3872;47.902;8.162;2023-03-26T05:09:53;90985.03;;;8.85;100.00
7660;BME280;3872;47.902;8.162;2023-03-26T05:12:30;90956.72;;;8.56;100.00
7660;BME280;3872;47.902;8.162;2023-03-26T05:15:10;90951.19;;;8.66;100.00
7660;BME280;3872;47.902;8.162;2023-03-26T05:17:47;90959.41;;;8.73;100.00
7660;BME280;3872;47.902;8.162;2023-03-26T05:20:24;90960.22;;;8.91;100.00
7660;BME280;3872;47.902;8.162;2023-03-26T05:22:51;90948.63;;;8.92;100.00
7660;BME280;3872;47.902;8.162;2023-03-26T05:25:25;90929.59;;;8.30;100.00
7660;BME280;3872;47.902;8.162;2023-03-26T05:27:52;90940.75;;;8.13;100.00
7660;BME280;3872;47.902;8.162;2023-03-26T05:30:22;90937.88;;;8.54;100.00
7660;BME280;3872;47.902;8.162;2023-03-26T05:32:54;90939.00;;;8.70;100.00
7660;BME280;3872;47.902;8.162;2023-03-26T05:35:27;90939.38;;;8.86;100.00
7660;BME280;3872;47.902;8.162;2023-03-26T05:37:54;90930.66;;;8.68;100.00
7660;BME280;3872;47.902;8.162;2023-03-26T05:40:23;90931.88;;;8.62;100.00
7660;BME280;3872;47.902;8.162;2023-03-26T05:42:53;90933.59;;;8.27;100.00
7660;BME280;3872;47.902;8.162;2023-03-26T05:45:43;90928.91;;;8.15;100.00
7660;BME280;3872;47.902;8.162;2023-03-26T05:48:28;90925.94;;;8.39;100.00
7660;BME280;3872;47.902;8.162;2023-03-26T05:50:57;90925.78;;;8.05;100.00
7660;BME280;3872;47.902;8.162;2023-03-26T05:53:26;90924.31;;;8.52;100.00
7660;BME280;3872;47.902;8.162;2023-03-26T05:56:11;90927.28;;;7.75;100.00
7660;BME280;3872;47.902;8.162;2023-03-26T05:58:57;90915.34;;;8.13;100.00
7660;BME280;3872;47.902;8.162;2023-03-26T06:01:49;90904.13;;;8.21;100.00
7660;BME280;3872;47.902;8.162;2023-03-26T06:04:51;90895.28;;;8.48;100.00
7660;BME280;3872;47.902;8.162;2023-03-26T06:07:22;90885.06;;;8.86;100.00
7660;BME280;3872;47.902;8.162;2023-03-26T06:10:05;90880.41;;;8.66;100.00
7660;BME280;3872;47.902;8.162;2023-03-26T06:12:32;90875.44;;;8.64;100.00
7660;BME280;3872;47.902;8.162;2023-03-26T06:14:58;90863.88;;;8.26;100.00
7660;BME280;3872;47.902;8.162;2023-03-26T06:17:38;90868.47;;;7.50;100.00
7660;BME280;3872;47.902;8.162;2023-03-26T06:20:18;90865.81;;;8.03;100.00
7660;BME280;3872;47.902;8.162;2023-03-26T06:22:48;90854.13;;;8.49;100.00
7660;BME280;3872;47.902;8.162;2023-03-26T06:25:20;90854.53;;;8.34;100.00
7660;BME280;3872;47.902;8.162;2023-03-26T06:27:53;90860.63;;;8.51;100.00
7660;BME280;3872;47.902;8.162;2023-03-26T06:30:39;90851.81;;;8.47;100.00
7660;BME280;3872;47.902;8.162;2023-03-26T06:33:20;90841.63;;;8.54;100.00
7660;BME280;3872;47.902;8.162;2023-03-26T06:35:49;90831.47;;;8.13;100.00
7660;BME280;3872;47.902;8.162;2023-03-26T06:38:17;90837.19;;;7.76;100.00
7660;BME280;3872;47.902;8.162;2023-03-26T06:40:44;90830.34;;;8.37;100.00
7660;BME280;3872;47.902;8.162;2023-03-26T06:43:25;90841.88;;;7.88;100.00
7660;BME280;3872;47.902;8.162;2023-03-26T06:46:02;90841.81;;;7.48;100.00
7660;BME280;3872;47.902;8.162;2023-03-26T06:48:38;90826.59;;;7.81;100.00
7660;BME280;3872;47.902;8.162;2023-03-26T06:51:23;90835.56;;;7.58;100.00
7660;BME280;3872;47.902;8.162;2023-03-26T06:54:09;90834.44;;;7.50;100.00
7660;BME280;3872;47.902;8.162;2023-03-26T06:56:42;90831.06;;;7.50;100.00
7660;BME280;3872;47.902;8.162;2023-03-26T06:59:23;90840.25;;;8.48;100.00
7660;BME280;3872;47.902;8.162;2023-03-26T07:02:19;90841.19;;;7.73;100.00
7660;BME280;3872;47.902;8.162;2023-03-26T07:05:04;90838.47;;;8.26;100.00
7660;BME280;3872;47.902;8.162;2023-03-26T07:08:09;90833.13;;;8.40;100.00
7660;BME280;3872;47.902;8.162;2023-03-26T07:11:07;90830.19;;;7.63;100.00
7660;BME280;3872;47.902;8.162;2023-03-26T07:14:09;90820.34;;;7.68;100.00
7660;BME280;3872;47.902;8.162;2023-03-26T07:16:44;90813.63;;;7.76;100.00
7660;BME280;3872;47.902;8.162;2023-03-26T07:19:31;90824.25;;;7.48;100.00
7660;BME280;3872;47.902;8.162;2023-03-26T07:21:59;90817.75;;;8.56;100.00
7660;BME280;3872;47.902;8.162;2023-03-26T07:24:44;90826.59;;;8.29;100.00
7660;BME280;3872;47.902;8.162;2023-03-26T07:27:45;90814.06;;;8.66;100.00
7660;BME280;3872;47.902;8.162;2023-03-26T07:30:22;90805.09;;;8.75;100.00
7660;BME280;3872;47.902;8.162;2023-03-26T07:33:15;90799.06;;;8.75;100.00
7660;BME280;3872;47.902;8.162;2023-03-26T07:36:04;90800.16;;;9.17;100.00
7660;BME280;3872;47.902;8.162;2023-03-26T07:39:09;90796.31;;;8.80;100.00
7660;BME280;3872;47.902;8.162;2023-03-26T07:42:18;90784.78;;;8.15;100.00
7660;BME280;3872;47.902;8.162;2023-03-26T07:45:36;90771.94;;;8.79;100.00
7660;BME280;3872;47.902;8.162;2023-03-26T07:48:19;90753.81;;;9.29;100.00
7660;BME280;3872;47.902;8.162;2023-03-26T07:51:07;90767.47;;;9.61;100.00
7660;BME280;3872;47.902;8.162;2023-03-26T07:53:57;90741.22;;;9.61;100.00
7660;BME280;3872;47.902;8.162;2023-03-26T07:56:41;90737.63;;;9.19;100.00
7660;BME280;3872;47.902;8.162;2023-03-26T07:59:50;90737.63;;;9.10;100.00
7660;BME280;3872;47.902;8.162;2023-03-26T08:05:59;90739.72;;;9.51;100.00
7660;BME280;3872;47.902;8.162;2023-03-26T08:08:40;90740.31;;;9.48;100.00
7660;BME280;3872;47.902;8.162;2023-03-26T08:11:42;90757.25;;;9.04;100.00
7660;BME280;3872;47.902;8.162;2023-03-26T08:14:20;90739.66;;;9.13;100.00
7660;BME280;3872;47.902;8.162;2023-03-26T08:16:53;90761.84;;;8.30;100.00
7660;BME280;3872;47.902;8.162;2023-03-26T08:19:41;90753.25;;;9.15;100.00
7660;BME280;3872;47.902;8.162;2023-03-26T08:22:16;90758.56;;;9.45;100.00
7660;BME280;3872;47.902;8.162;2023-03-26T08:24:58;90761.50;;;9.43;100.00
7660;BME280;3872;47.902;8.162;2023-03-26T08:27:34;90749.84;;;9.70;100.00
7660;BME280;3872;47.902;8.162;2023-03-26T08:30:10;90755.44;;;8.87;100.00
7660;BME280;3872;47.902;8.162;2023-03-26T08:32:40;90763.91;;;8.84;100.00
7660;BME280;3872;47.902;8.162;2023-03-26T08:35:11;90749.25;;;9.09;100.00
7660;BME280;3872;47.902;8.162;2023-03-26T08:37:38;90764.03;;;8.96;100.00
7660;BME280;3872;47.902;8.162;2023-03-26T08:40:08;90781.66;;;8.70;100.00
7660;BME280;3872;47.902;8.162;2023-03-26T08:46:14;90790.13;;;8.76;100.00
7660;BME280;3872;47.902;8.162;2023-03-26T08:48:59;90788.25;;;9.19;100.00
7660;BME280;3872;47.902;8.162;2023-03-26T08:52:10;90782.06;;;9.41;100.00
7660;BME280;3872;47.902;8.162;2023-03-26T08:55:02;90767.75;;;9.13;100.00
7660;BME280;3872;47.902;8.162;2023-03-26T08:57:59;90761.59;;;9.09;100.00
7660;BME280;3872;47.902;8.162;2023-03-26T09:00:38;90773.63;;;10.03;100.00
7660;BME280;3872;47.902;8.162;2023-03-26T09:03:37;90773.84;;;9.51;100.00
7660;BME280;3872;47.902;8.162;2023-03-26T09:09:28;90786.50;;;10.34;100.00
7660;BME280;3872;47.902;8.162;2023-03-26T09:12:11;90782.06;;;10.76;100.00
7660;BME280;3872;47.902;8.162;2023-03-26T09:27:30;90804.66;;;10.56;90.54
7660;BME280;3872;47.902;8.162;2023-03-26T09:30:23;90788.53;;;10.37;91.75
7660;BME280;3872;47.902;8.162;2023-03-26T09:33:20;90780.53;;;10.75;91.09
7660;BME280;3872;47.902;8.162;2023-03-26T09:36:02;90796.84;;;10.89;84.45
7660;BME280;3872;47.902;8.162;2023-03-26T09:38:44;90786.31;;;10.39;84.06
7660;BME280;3872;47.902;8.162;2023-03-26T09:41:16;90783.94;;;10.96;83.71
7660;BME280;3872;47.902;8.162;2023-03-26T09:47:03;90786.19;;;11.72;73.80
7660;BME280;3872;47.902;8.162;2023-03-26T09:49:47;90779.38;;;12.28;74.91
7660;BME280;3872;47.902;8.162;2023-03-26T09:52:25;90814.28;;;11.35;73.44
7660;BME280;3872;47.902;8.162;2023-03-26T09:55:16;90791.94;;;10.58;77.06
7660;BME280;3872;47.902;8.162;2023-03-26T09:58:03;90790.22;;;11.04;82.85
7660;BME280;3872;47.902;8.162;2023-03-26T10:00:35;90772.06;;;11.89;71.69
7660;BME280;3872;47.902;8.162;2023-03-26T10:03:19;90771.81;;;11.36;72.35
7660;BME280;3872;47.902;8.162;2023-03-26T10:06:00;90781.69;;;11.39;71.24
7660;BME280;3872;47.902;8.162;2023-03-26T10:09:01;90780.97;;;11.51;69.73
7660;BME280;3872;47.902;8.162;2023-03-26T10:11:52;90782.53;;;12.34;67.79
7660;BME280;3872;47.902;8.162;2023-03-26T10:14:25;90774.03;;;12.77;61.93
7660;BME280;3872;47.902;8.162;2023-03-26T10:17:05;90776.69;;;11.14;64.80
7660;BME280;3872;47.902;8.162;2023-03-26T10:19:47;90783.72;;;11.22;72.12
7660;BME280;3872;47.902;8.162;2023-03-26T10:22:35;90790.63;;;10.93;74.30
7660;BME280;3872;47.902;8.162;2023-03-26T10:25:14;90789.94;;;11.17;75.34
7660;BME280;3872;47.902;8.162;2023-03-26T10:27:51;90796.97;;;10.92;79.21
7660;BME280;3872;47.902;8.162;2023-03-26T10:30:29;90816.44;;;10.79;78.81
7660;BME280;3872;47.902;8.162;2023-03-26T10:33:11;90823.34;;;9.87;90.21
7660;BME280;3872;47.902;8.162;2023-03-26T10:35:46;90825.63;;;9.89;100.00
7660;BME280;3872;47.902;8.162;2023-03-26T10:38:22;90834.75;;;8.93;100.00
7660;BME280;3872;47.902;8.162;2023-03-26T10:40:58;90824.78;;;10.14;100.00
7660;BME280;3872;47.902;8.162;2023-03-26T10:43:53;90829.13;;;10.18;100.00
7660;BME280;3872;47.902;8.162;2023-03-26T10:46:55;90831.03;;;10.01;100.00
7660;BME280;3872;47.902;8.162;2023-03-26T10:49:57;90844.00;;;9.42;100.00
7660;BME280;3872;47.902;8.162;2023-03-26T10:52:30;90846.41;;;8.44;100.00
7660;BME280;3872;47.902;8.162;2023-03-26T10:55:08;90852.19;;;8.97;100.00
7660;BME280;3872;47.902;8.162;2023-03-26T10:57:39;90851.81;;;8.56;100.00
7660;BME280;3872;47.902;8.162;2023-03-26T11:00:18;90839.44;;;9.77;100.00
7660;BME280;3872;47.902;8.162;2023-03-26T11:03:14;90824.47;;;10.15;100.00
7660;BME280;3872;47.902;8.162;2023-03-26T11:05:48;90823.53;;;11.20;100.00
7660;BME280;3872;47.902;8.162;2023-03-26T11:08:20;90825.34;;;11.94;100.00
7660;BME280;3872;47.902;8.162;2023-03-26T11:10:55;90828.97;;;10.74;100.00
7660;BME280;3872;47.902;8.162;2023-03-26T11:13:40;90815.53;;;10.46;100.00
7660;BME280;3872;47.902;8.162;2023-03-26T11:16:14;90799.53;;;11.22;100.00
7660;BME280;3872;47.902;8.162;2023-03-26T11:18:47;90802.66;;;10.94;100.00
7660;BME280;3872;47.902;8.162;2023-03-26T11:21:23;90806.72;;;10.71;92.96
7660;BME280;3872;47.902;8.162;2023-03-26T11:24:01;90812.56;;;11.18;88.28
7660;BME280;3872;47.902;8.162;2023-03-26T11:26:38;90800.38;;;11.80;91.29
7660;BME280;3872;47.902;8.162;2023-03-26T11:29:25;90798.09;;;11.78;81.74
7660;BME280;3872;47.902;8.162;2023-03-26T11:32:00;90806.38;;;11.35;81.55
7660;BME280;3872;47.902;8.162;2023-03-26T11:34:32;90804.44;;;11.23;79.35
7660;BME280;3872;47.902;8.162;2023-03-26T11:37:04;90799.59;;;11.46;81.91
7660;BME280;3872;47.902;8.162;2023-03-26T11:39:40;90802.03;;;10.56;95.56
7660;BME280;3872;47.902;8.162;2023-03-26T11:42:12;90797.50;;;10.36;100.00
7660;BME280;3872;47.902;8.162;2023-03-26T11:44:45;90806.06;;;11.69;85.28
7660;BME280;3872;47.902;8.162;2023-03-26T11:47:20;90809.56;;;10.87;92.33
7660;BME280;3872;47.902;8.162;2023-03-26T11:49:50;90824.69;;;10.40;96.02
7660;BME280;3872;47.902;8.162;2023-03-26T11:52:21;90839.19;;;10.08;100.00
7660;BME280;3872;47.902;8.162;2023-03-26T11:54:47;90844.66;;;10.70;100.00
7660;BME280;3872;47.902;8.162;2023-03-26T11:57:17;90855.56;;;9.24;100.00
7660;BME280;3872;47.902;8.162;2023-03-26T11:59:49;90878.03;;;8.56;100.00
7660;BME280;3872;47.902;8.162;2023-03-26T12:02:24;90889.22;;;8.79;100.00
7660;BME280;3872;47.902;8.162;2023-03-26T12:05:09;90888.88;;;7.17;100.00
7660;BME280;3872;47.902;8.162;2023-03-26T12:07:44;90885.38;;;7.66;100.00
7660;BME280;3872;47.902;8.162;2023-03-26T12:10:21;90900.41;;;6.80;100.00
7660;BME280;3872;47.902;8.162;2023-03-26T12:12:52;90891.78;;;7.60;100.00
7660;BME280;3872;47.902;8.162;2023-03-26T12:15:20;90887.84;;;6.55;100.00
7660;BME280;3872;47.902;8.162;2023-03-26T12:17:50;90869.66;;;7.44;100.00
7660;BME280;3872;47.902;8.162;2023-03-26T12:20:30;90852.44;;;8.61;100.00
7660;BME280;3872;47.902;8.162;2023-03-26T12:22:59;90829.28;;;10.51;100.00
7660;BME280;3872;47.902;8.162;2023-03-26T12:25:30;90825.41;;;9.64;100.00
7660;BME280;3872;47.902;8.162;2023-03-26T12:27:59;90824.22;;;10.00;100.00
7660;BME280;3872;47.902;8.162;2023-03-26T12:30:27;90803.00;;;11.14;100.00
7660;BME280;3872;47.902;8.162;2023-03-26T12:32:57;90800.03;;;11.36;100.00
7660;BME280;3872;47.902;8.162;2023-03-26T12:35:29;90794.84;;;10.65;100.00
7660;BME280;3872;47.902;8.162;2023-03-26T12:38:15;90771.41;;;11.47;100.00
7660;BME280;3872;47.902;8.162;2023-03-26T12:40:47;90765.16;;;11.84;90.67
7660;BME280;3872;47.902;8.162;2023-03-26T12:43:28;90751.59;;;13.11;100.00
7660;BME280;3872;47.902;8.162;2023-03-26T12:45:56;90751.44;;;13.31;72.38
7660;BME280;3872;47.902;8.162;2023-03-26T12:48:24;90747.97;;;13.43;77.21
7660;BME280;3872;47.902;8.162;2023-03-26T12:51:00;90739.41;;;10.70;92.35
7660;BME280;3872;47.902;8.162;2023-03-26T12:53:45;90725.69;;;10.97;89.66
7660;BME280;3872;47.902;8.162;2023-03-26T12:56:19;90728.09;;;10.90;95.82
7660;BME280;3872;47.902;8.162;2023-03-26T13:01:48;90727.25;;;11.89;92.73
7660;BME280;3872;47.902;8.162;2023-03-26T13:04:40;90726.69;;;12.44;94.13
7660;BME280;3872;47.902;8.162;2023-03-26T13:07:16;90719.41;;;13.92;74.87
7660;BME280;3872;47.902;8.162;2023-03-26T13:09:57;90715.91;;;12.89;81.87
7660;BME280;3872;47.902;8.162;2023-03-26T13:12:34;90712.22;;;14.40;67.19
7660;BME280;3872;47.902;8.162;2023-03-26T13:15:13;90730.81;;;11.60;86.88
7660;BME280;3872;47.902;8.162;2023-03-26T13:17:46;90749.03;;;11.20;83.07
7660;BME280;3872;47.902;8.162;2023-03-26T13:20:22;90761.44;;;11.19;90.32
7660;BME280;3872;47.902;8.162;2023-03-26T13:22:56;90761.63;;;11.47;87.23
7660;BME280;3872;47.902;8.162;2023-03-26T13:25:36;90779.72;;;9.48;100.00
7660;BME280;3872;47.902;8.162;2023-03-26T13:28:15;90765.69;;;9.35;100.00
7660;BME280;3872;47.902;8.162;2023-03-26T13:30:50;90745.19;;;9.67;100.00
7660;BME280;3872;47.902;8.162;2023-03-26T13:33:31;90729.78;;;9.95;100.00
7660;BME280;3872;47.902;8.162;2023-03-26T13:36:04;90697.06;;;11.29;100.00
7660;BME280;3872;47.902;8.162;2023-03-26T13:38:43;90706.41;;;10.93;98.50
7660;BME280;3872;47.902;8.162;2023-03-26T13:41:22;90690.03;;;11.90;99.16
7660;BME280;3872;47.902;8.162;2023-03-26T13:44:00;90692.66;;;13.50;75.73
7660;BME280;3872;47.902;8.162;2023-03-26T13:46:33;90688.09;;;13.63;73.65
7660;BME280;3872;47.902;8.162;2023-03-26T13:49:03;90693.22;;;13.00;77.75
7660;BME280;3872;47.902;8.162;2023-03-26T13:51:36;90694.31;;;12.59;77.74
7660;BME280;3872;47.902;8.162;2023-03-26T13:54:12;90673.28;;;9.51;100.00
7660;BME280;3872;47.902;8.162;2023-03-26T13:56:46;90658.28;;;10.72;91.33
7660;BME280;3872;47.902;8.162;2023-03-26T13:59:16;90656.84;;;10.42;94.60
7660;BME280;3872;47.902;8.162;2023-03-26T14:01:47;90645.28;;;9.25;99.93
7660;BME280;3872;47.902;8.162;2023-03-26T14:04:21;90626.75;;;9.80;93.04
7660;BME280;3872;47.902;8.162;2023-03-26T14:06:52;90631.78;;;9.44;97.18
7660;BME280;3872;47.902;8.162;2023-03-26T14:09:26;90650.47;;;10.01;97.74
7660;BME280;3872;47.902;8.162;2023-03-26T14:12:20;90680.88;;;8.97;100.00
7660;BME280;3872;47.902;8.162;2023-03-26T14:14:54;90712.69;;;8.70;100.00
7660;BME280;3872;47.902;8.162;2023-03-26T14:17:27;90762.25;;;7.58;100.00
7660;BME280;3872;47.902;8.162;2023-03-26T14:20:18;90774.63;;;8.14;100.00
7660;BME280;3872;47.902;8.162;2023-03-26T14:23:11;90754.16;;;6.84;100.00
7660;BME280;3872;47.902;8.162;2023-03-26T14:25:54;90742.38;;;7.17;100.00
7660;BME280;3872;47.902;8.162;2023-03-26T14:28:56;90741.53;;;6.41;100.00
7660;BME280;3872;47.902;8.162;2023-03-26T14:31:35;90745.53;;;6.61;100.00
7660;BME280;3872;47.902;8.162;2023-03-26T14:34:20;90742.97;;;6.69;100.00
7660;BME280;3872;47.902;8.162;2023-03-26T14:39:48;90740.50;;;6.64;100.00
7660;BME280;3872;47.902;8.162;2023-03-26T14:42:28;90741.47;;;7.61;100.00
7660;BME280;3872;47.902;8.162;2023-03-26T14:45:34;90736.34;;;6.86;100.00
7660;BME280;3872;47.902;8.162;2023-03-26T14:48:38;90741.38;;;6.82;100.00